Grand Rapids, MN (55730)

1:53 PM CDT on July 28, 2014 (GMT -0500)
Northwest (KMNGRAND14) Elev 1289 ft | 47.24 °N, 93.53 °W | Change Station

Current weather conditions updated 11 seconds ago

Scattered Clouds
Scattered Clouds
80.8 °F
Feels Like 81 °F
N
0.0
Wind Variable Wind from North
Gusts 0.0 mph

Today is forecast to be Warmer than yesterday.

Today
High -- | Low -- °F
--% Chance of Precip.
Yesterday
High -- | Low -- °F
Precip. -- in
5:47 AM 8:52 PM
Waxing Crescent, 3% visible
Pressure 30.20 in
Visibility 10.0 miles
Clouds Few 4700 ft
Scattered Clouds 6000 ft
Heat Index 81 °F
Dew Point 55 °F
Humidity 41%
Rainfall 0.00 in
Snow Depth Not available.
UV 8 out of 12
Pollen 6.80 out of 12
Air Quality Not available.
Flu Activity Not available.
METAR KGPZ 281835Z AUTO 33008KT 10SM FEW047 SCT060 22/10 A3020 RMK AO1

More Conditions Fewer Conditions

Pressure 30.20 in
Visibility 10.0 miles
Clouds Few 4700 ft
Scattered Clouds 6000 ft
Heat Index 81 °F
Dew Point 55 °F
Humidity 41%
Rainfall 0.00 in
Snow Depth Not available.
UV 8 out of 12
Pollen 6.80 out of 12
Air Quality Not available.
Flu Activity Not available.
METAR KGPZ 281835Z AUTO 33008KT 10SM FEW047 SCT060 22/10 A3020 RMK AO1

More Conditions Fewer Conditions

10-Day Weather Forecast

Almanac

Astronomy

Jul. 28, 2014 Rise Set
Actual Time 5:47 AM CDT 8:52 PM CDT
Civil Twilight 5:11 AM CDT 9:28 PM CDT
Nautical Twilight 4:24 AM CDT 10:15 PM CDT
Astronomical Twilight 3:26 AM CDT 11:12 PM CDT
Moon 7:40 AM CDT 9:21 PM CDT
Length of Visible Light 16h 17m
Length of Day
15h 04m
Tomorrow will be 2m 30s shorter.
Waxing Crescent, 3% of the Moon is Illuminated
Today
Waxing Crescent
Aug 3
First Quarter
Aug 10
Full
Aug 17
Last Quarter
Aug 25
New

Today's Extremes

State Highs State Lows

Community

WunderPhotos

Upload Photos

1,738,433 photos uploaded!

Nearby

Snow Depth

Station Depth Elevation
No new snow has been reported.

Earthquake Activity

City Distance Mag. Time & Date
No recent earthquake activity has been reported nearby.
Minimum magnitude displayed is 2.5.

Coastal Water Temperatures

Place Temperature
No Stations Reporting

Nearby Weather Stations

Station Location Temp. Heat Index Dew Point Humidity Wind Precip. Elev Updated Type
Northwest, Grand Rapids, MN 80.8 °F 81 °F 55 °F 41% North  at  0.0 mph 0.00 in / hr 1289 ft 1:53 PM CDT Rapid Fire
Southwest, Grand Rapids, MN 73.2 °F 77 °F 56 °F 55% NW  at  2.2 mph 0.00 in / hr 1322 ft 1:51 PM CDT Normal
Near Hwy 63, Cohasset, MN 72.0 °F 77 °F 52 °F 50% NW  at  0.0 mph 0.00 in / hr 1305 ft 1:43 PM CDT Normal
On Bass Lake, Cohasset, MN 70.9 °F 76 °F 57 °F 62% SW  at  0.0 mph 0.00 in / hr 1273 ft 1:49 PM CDT Normal
Ye old Homestead, Deer River, MN 73.9 °F 77 °F 57 °F 55% West  at  7.8 mph - / hr 1339 ft 1:53 PM CDT Normal
Gus' Place Resort, Deer River, MN 72.5 °F 76 °F 57 °F 59% East  at  5.8 mph - / hr 1283 ft 1:42 PM CDT Normal

Show More Stations Show Fewer Stations